createdAt,value
2018-05-19T00:00:31.611Z,14.20
2018-05-19T00:01:31.523Z,14.26
2018-05-19T00:03:23.274Z,14.26
2018-05-19T00:04:23.209Z,14.27
2018-05-19T00:06:14.976Z,14.12
2018-05-19T00:07:14.907Z,14.17
2018-05-19T00:09:06.664Z,14.09
2018-05-19T00:10:06.595Z,14.09
2018-05-19T00:11:58.346Z,13.99
2018-05-19T00:12:58.286Z,14.16
2018-05-19T00:14:50.060Z,14.05
2018-05-19T00:15:49.978Z,14.01
2018-05-19T00:17:41.789Z,14.04
2018-05-19T00:18:41.705Z,14.04
2018-05-19T00:20:33.480Z,13.99
2018-05-19T00:21:33.406Z,14.04
2018-05-19T00:23:25.179Z,14.01
2018-05-19T00:24:25.109Z,14.04
2018-05-19T00:26:16.931Z,13.96
2018-05-19T00:27:16.795Z,13.91
2018-05-19T00:29:08.582Z,13.88
2018-05-19T00:30:08.509Z,14.01
2018-05-19T00:32:00.249Z,13.96
2018-05-19T00:33:00.185Z,13.96
2018-05-19T00:34:51.951Z,13.94
2018-05-19T00:35:51.880Z,13.91
2018-05-19T00:37:43.632Z,13.88
2018-05-19T00:38:43.559Z,13.91
2018-05-19T00:40:35.351Z,13.94
2018-05-19T00:41:35.272Z,13.93
2018-05-19T00:43:27.037Z,13.98
2018-05-19T00:44:26.964Z,13.91
2018-05-19T00:46:18.736Z,13.83
2018-05-19T00:47:18.664Z,13.84
2018-05-19T00:49:10.415Z,13.88
2018-05-19T00:50:10.355Z,13.84
2018-05-19T00:52:02.115Z,13.81
2018-05-19T00:53:02.043Z,13.81
2018-05-19T00:54:53.811Z,13.81
2018-05-19T00:55:53.735Z,13.79
2018-05-19T00:57:45.493Z,13.83
2018-05-19T00:58:45.432Z,13.84
2018-05-19T01:00:37.204Z,13.86
2018-05-19T01:01:37.131Z,13.81
2018-05-19T01:03:28.891Z,13.84
2018-05-19T01:04:28.829Z,13.86
2018-05-19T01:06:20.592Z,13.83
2018-05-19T01:07:20.510Z,13.99
2018-05-19T01:09:12.265Z,14.04
2018-05-19T01:10:12.201Z,14.04
2018-05-19T01:12:03.956Z,14.11
2018-05-19T01:13:03.897Z,14.08
2018-05-19T01:14:55.652Z,14.06
2018-05-19T01:15:55.589Z,14.11
2018-05-19T01:17:47.375Z,14.04
2018-05-19T01:18:47.295Z,14.08
2018-05-19T01:20:39.075Z,14.11
2018-05-19T01:21:39.015Z,14.08
2018-05-19T01:23:30.768Z,14.06
2018-05-19T01:24:30.708Z,14.04
2018-05-19T01:26:22.464Z,14.04
2018-05-19T01:27:22.392Z,14.02
2018-05-19T01:29:14.140Z,14.04
2018-05-19T01:30:14.132Z,13.88
2018-05-19T01:32:05.876Z,13.96
2018-05-19T01:33:05.766Z,13.91
2018-05-19T01:34:57.530Z,13.94
2018-05-19T01:35:57.467Z,13.91
2018-05-19T01:37:49.240Z,13.94
2018-05-19T01:38:49.150Z,13.96
2018-05-19T01:40:40.927Z,13.99
2018-05-19T01:41:40.847Z,14.04
2018-05-19T01:43:32.599Z,13.99
2018-05-19T01:44:32.534Z,13.98
2018-05-19T01:46:24.298Z,14.02
2018-05-19T01:47:24.228Z,14.01
2018-05-19T01:49:15.998Z,14.02
2018-05-19T01:50:15.937Z,13.86
2018-05-19T01:52:07.739Z,14.02
2018-05-19T01:53:07.669Z,13.96
2018-05-19T01:54:59.435Z,14.04
2018-05-19T01:55:59.370Z,13.91
2018-05-19T01:57:51.137Z,13.94
2018-05-19T01:58:51.073Z,13.91
2018-05-19T02:00:42.827Z,13.84
2018-05-19T02:01:42.762Z,13.81
2018-05-19T02:03:34.519Z,13.84
2018-05-19T02:04:34.449Z,13.80
2018-05-19T02:06:26.202Z,13.84
2018-05-19T02:07:26.131Z,13.81
2018-05-19T02:09:17.880Z,13.83
2018-05-19T02:10:17.816Z,13.83
2018-05-19T02:12:09.598Z,13.87
2018-05-19T02:13:09.513Z,13.86
2018-05-19T02:15:01.276Z,13.81
2018-05-19T02:16:01.212Z,13.75
2018-05-19T02:17:52.985Z,13.83
2018-05-19T02:18:52.909Z,13.71
2018-05-19T02:20:44.721Z,13.84
2018-05-19T02:21:44.601Z,13.79
2018-05-19T02:23:36.414Z,13.88
2018-05-19T02:24:36.326Z,13.76
2018-05-19T02:26:28.164Z,13.86
2018-05-19T02:27:28.084Z,13.84
2018-05-19T02:29:19.870Z,13.83
2018-05-19T02:30:19.789Z,13.83
2018-05-19T02:32:11.561Z,13.86
2018-05-19T02:33:11.487Z,13.83
2018-05-19T02:35:03.253Z,13.84
2018-05-19T02:36:03.179Z,13.84
2018-05-19T02:37:54.958Z,13.84
2018-05-19T02:38:54.892Z,13.87
2018-05-19T02:40:46.671Z,13.87
2018-05-19T02:41:46.616Z,13.88
2018-05-19T02:43:38.368Z,13.88
2018-05-19T02:44:38.295Z,13.84
2018-05-19T02:46:30.058Z,13.86
2018-05-19T02:47:29.981Z,13.81
2018-05-19T02:49:21.750Z,13.84
2018-05-19T02:50:21.687Z,13.79
2018-05-19T02:52:13.483Z,13.80
2018-05-19T02:53:13.413Z,13.86
2018-05-19T02:55:05.176Z,13.86
2018-05-19T02:56:05.106Z,13.80
2018-05-19T02:57:56.878Z,13.83
2018-05-19T02:58:56.801Z,13.96
2018-05-19T03:00:48.550Z,13.90
2018-05-19T03:01:48.495Z,13.98
2018-05-19T03:03:40.247Z,13.91
2018-05-19T03:04:40.175Z,13.83
2018-05-19T03:06:31.948Z,13.87
2018-05-19T03:07:31.884Z,13.79
2018-05-19T03:09:23.672Z,13.90
2018-05-19T03:10:23.578Z,13.84
2018-05-19T03:12:15.356Z,13.79
2018-05-19T03:13:15.280Z,13.87
2018-05-19T03:15:07.060Z,13.86
2018-05-19T03:16:06.996Z,13.83
2018-05-19T03:17:58.771Z,13.87
2018-05-19T03:18:58.700Z,13.83
2018-05-19T03:20:50.445Z,13.94
2018-05-19T03:21:50.386Z,13.88
2018-05-19T03:23:42.163Z,14.01
2018-05-19T03:24:42.091Z,14.04
2018-05-19T03:26:33.832Z,14.11
2018-05-19T03:27:33.775Z,14.19
2018-05-19T03:29:25.527Z,14.16
2018-05-19T03:30:25.457Z,14.06
2018-05-19T03:32:17.227Z,13.90
2018-05-19T03:33:17.164Z,13.90
2018-05-19T03:35:08.944Z,13.83
2018-05-19T03:36:08.910Z,13.90
2018-05-19T03:38:00.647Z,13.80
2018-05-19T03:39:00.570Z,13.86
2018-05-19T03:40:52.326Z,13.87
2018-05-19T03:41:52.264Z,13.96
2018-05-19T03:43:44.045Z,13.93
2018-05-19T03:44:43.977Z,14.01
2018-05-19T03:46:35.793Z,14.05
2018-05-19T03:47:35.743Z,14.06
2018-05-19T03:49:27.496Z,14.04
2018-05-19T03:50:27.416Z,14.01
2018-05-19T03:52:19.207Z,14.12
2018-05-19T03:53:19.146Z,14.01
2018-05-19T03:55:10.952Z,14.04
2018-05-19T03:56:10.860Z,14.06
2018-05-19T03:58:02.685Z,14.17
2018-05-19T03:59:02.653Z,14.16
2018-05-19T04:00:54.399Z,14.21
2018-05-19T04:01:54.326Z,14.16
2018-05-19T04:03:46.110Z,14.21
2018-05-19T04:04:46.012Z,14.29
2018-05-19T04:06:37.761Z,14.44
2018-05-19T04:07:37.727Z,14.44
2018-05-19T04:09:29.524Z,14.42
2018-05-19T04:10:29.430Z,14.39
2018-05-19T04:12:21.199Z,14.52
2018-05-19T04:13:21.156Z,14.54
2018-05-19T04:15:12.899Z,14.53
2018-05-19T04:16:12.833Z,14.52
2018-05-19T04:18:04.576Z,14.57
2018-05-19T04:19:04.527Z,14.67
2018-05-19T04:20:56.302Z,14.66
2018-05-19T04:21:56.238Z,14.75
2018-05-19T04:23:48.122Z,14.86
2018-05-19T04:24:48.040Z,14.86
2018-05-19T04:26:39.809Z,14.87
2018-05-19T04:27:39.740Z,15.07
2018-05-19T04:29:31.544Z,15.05
2018-05-19T04:30:31.447Z,15.15
2018-05-19T04:32:23.204Z,15.18
2018-05-19T04:33:23.141Z,15.18
2018-05-19T04:35:14.926Z,15.15
2018-05-19T04:36:14.846Z,15.23
2018-05-19T04:38:06.603Z,15.25
2018-05-19T04:39:06.541Z,15.28
2018-05-19T04:40:58.341Z,15.33
2018-05-19T04:41:58.260Z,15.27
2018-05-19T04:43:50.066Z,15.34
2018-05-19T04:44:50.005Z,15.41
2018-05-19T04:46:41.815Z,15.55
2018-05-19T04:47:41.713Z,15.58
2018-05-19T04:49:33.553Z,15.77
2018-05-19T04:50:33.475Z,15.74
2018-05-19T04:52:25.234Z,15.77
2018-05-19T04:53:25.215Z,15.80
2018-05-19T04:55:16.938Z,15.86
2018-05-19T04:56:16.867Z,15.89
2018-05-19T04:58:08.650Z,15.77
2018-05-19T04:59:08.589Z,15.68
2018-05-19T05:01:00.352Z,15.66
2018-05-19T05:02:00.272Z,15.70
2018-05-19T05:03:52.044Z,16.27
2018-05-19T05:04:51.972Z,16.57
2018-05-19T05:06:43.766Z,16.37
2018-05-19T05:07:43.735Z,16.47
2018-05-19T05:09:35.431Z,16.27
2018-05-19T05:10:35.371Z,16.26
2018-05-19T05:12:27.143Z,16.27
2018-05-19T05:13:27.073Z,16.17
2018-05-19T05:15:18.849Z,16.07
2018-05-19T05:16:18.779Z,16.25
2018-05-19T05:18:10.544Z,16.81
2018-05-19T05:19:10.474Z,17.40
2018-05-19T05:21:02.337Z,18.21
2018-05-19T05:22:02.250Z,18.38
2018-05-19T05:23:54.008Z,19.43
2018-05-19T05:24:53.945Z,19.79
2018-05-19T05:26:45.714Z,19.31
2018-05-19T05:27:45.639Z,19.76
2018-05-19T05:29:37.411Z,19.75
2018-05-19T05:30:37.355Z,19.75
2018-05-19T05:32:29.118Z,20.04
2018-05-19T05:33:29.059Z,20.26
2018-05-19T05:35:20.907Z,19.98
2018-05-19T05:36:20.838Z,20.01
2018-05-19T05:38:12.657Z,19.79
2018-05-19T05:39:12.596Z,20.00
2018-05-19T05:41:04.398Z,20.34
2018-05-19T05:42:04.321Z,20.54
2018-05-19T05:43:56.078Z,20.85
2018-05-19T05:44:56.038Z,21.06
2018-05-19T05:46:47.836Z,21.12
2018-05-19T05:47:47.989Z,21.24
2018-05-19T05:49:39.549Z,21.43
2018-05-19T05:50:39.474Z,21.43
2018-05-19T05:52:31.250Z,21.81
2018-05-19T05:53:31.226Z,21.94
2018-05-19T05:55:22.968Z,21.81
2018-05-19T05:56:22.909Z,21.90
2018-05-19T05:58:14.672Z,21.55
2018-05-19T05:59:14.600Z,21.85
2018-05-19T06:01:06.371Z,22.38
2018-05-19T06:02:06.307Z,22.61
2018-05-19T06:03:58.088Z,22.51
2018-05-19T06:04:58.033Z,22.97
2018-05-19T06:06:49.944Z,23.19
2018-05-19T06:07:49.745Z,23.49
2018-05-19T06:09:41.519Z,23.89
2018-05-19T06:10:41.456Z,23.11
2018-05-19T06:12:33.303Z,23.41
2018-05-19T06:13:33.178Z,23.38
2018-05-19T06:15:24.955Z,23.75
2018-05-19T06:16:24.889Z,23.97
2018-05-19T06:18:16.680Z,24.18
2018-05-19T06:19:16.609Z,24.53
2018-05-19T06:21:08.380Z,24.56
2018-05-19T06:22:08.317Z,24.87
2018-05-19T06:24:00.087Z,24.23
2018-05-19T06:25:00.073Z,24.19
2018-05-19T06:26:51.811Z,24.11
2018-05-19T06:27:51.739Z,24.15
2018-05-19T06:29:43.520Z,24.52
2018-05-19T06:30:43.469Z,24.52
2018-05-19T06:32:35.292Z,24.67
2018-05-19T06:33:35.229Z,24.66
2018-05-19T06:35:27.007Z,24.98
2018-05-19T06:36:26.958Z,25.36
2018-05-19T06:38:18.754Z,25.83
2018-05-19T06:39:18.691Z,25.83
2018-05-19T06:41:10.458Z,25.38
2018-05-19T06:42:10.476Z,25.66
2018-05-19T06:44:02.212Z,25.83
2018-05-19T06:45:02.145Z,26.03
2018-05-19T06:46:53.949Z,26.11
2018-05-19T06:47:53.949Z,25.36
2018-05-19T06:49:45.670Z,24.67
2018-05-19T06:50:45.623Z,24.63
2018-05-19T06:52:37.409Z,24.97
2018-05-19T06:53:37.339Z,25.23
2018-05-19T06:55:29.126Z,25.97
2018-05-19T06:56:29.134Z,26.12
2018-05-19T06:58:20.856Z,25.48
2018-05-19T06:59:20.791Z,25.49
2018-05-19T07:01:12.578Z,25.29
2018-05-19T07:02:12.524Z,25.23
2018-05-19T07:04:04.306Z,25.45
2018-05-19T07:05:04.239Z,26.06
2018-05-19T07:06:56.035Z,26.44
2018-05-19T07:07:55.968Z,27.05
2018-05-19T07:09:47.744Z,27.48
2018-05-19T07:10:47.683Z,27.69
2018-05-19T07:12:39.498Z,26.17
2018-05-19T07:13:39.425Z,25.08
2018-05-19T07:15:31.221Z,25.89
2018-05-19T07:16:31.176Z,26.46
2018-05-19T07:18:22.969Z,26.91
2018-05-19T07:19:22.893Z,26.73
2018-05-19T07:21:14.676Z,27.09
2018-05-19T07:22:14.621Z,27.31
2018-05-19T07:24:06.443Z,27.39
2018-05-19T07:25:06.372Z,26.87
2018-05-19T07:26:58.209Z,26.79
2018-05-19T07:27:58.083Z,26.90
2018-05-19T07:29:49.884Z,27.48
2018-05-19T07:30:49.813Z,27.76
2018-05-19T07:32:41.650Z,28.32
2018-05-19T07:33:41.536Z,28.42
2018-05-19T07:35:33.333Z,27.96
2018-05-19T07:36:33.252Z,27.03
2018-05-19T07:38:25.068Z,26.21
2018-05-19T07:39:24.998Z,26.19
2018-05-19T07:41:16.814Z,26.29
2018-05-19T07:42:16.736Z,26.86
2018-05-19T07:44:08.577Z,27.16
2018-05-19T07:45:08.494Z,27.43
2018-05-19T07:47:00.269Z,26.13
2018-05-19T07:48:00.220Z,26.00
2018-05-19T07:49:51.998Z,26.87
2018-05-19T07:50:51.947Z,26.79
2018-05-19T07:52:43.757Z,25.24
2018-05-19T07:53:43.673Z,25.63
2018-05-19T07:55:35.452Z,26.79
2018-05-19T07:56:35.399Z,27.30
2018-05-19T07:58:27.234Z,26.44
2018-05-19T07:59:27.161Z,27.02
2018-05-19T08:01:18.942Z,27.09
2018-05-19T08:02:18.891Z,27.35
2018-05-19T08:04:10.779Z,27.52
2018-05-19T08:05:10.633Z,25.83
2018-05-19T08:07:02.922Z,25.16
2018-05-19T08:08:02.860Z,25.29
2018-05-19T08:09:54.644Z,25.46
2018-05-19T08:10:54.579Z,25.39
2018-05-19T08:12:46.392Z,25.29
2018-05-19T08:13:46.323Z,24.99
2018-05-19T08:15:38.126Z,24.94
2018-05-19T08:16:38.064Z,24.89
2018-05-19T08:18:29.854Z,25.60
2018-05-19T08:19:29.792Z,25.83
2018-05-19T08:21:21.570Z,26.31
2018-05-19T08:22:21.514Z,26.00
2018-05-19T08:24:13.324Z,26.44
2018-05-19T08:25:13.237Z,26.79
2018-05-19T08:27:05.025Z,25.98
2018-05-19T08:28:04.960Z,25.53
2018-05-19T08:29:56.760Z,26.17
2018-05-19T08:30:56.693Z,26.78
2018-05-19T08:32:48.475Z,27.76
2018-05-19T08:33:48.414Z,27.95
2018-05-19T08:35:40.221Z,28.06
2018-05-19T08:36:40.138Z,28.17
2018-05-19T08:38:31.960Z,28.32
2018-05-19T08:39:31.868Z,27.83
2018-05-19T08:41:23.647Z,26.71
2018-05-19T08:42:23.592Z,26.00
2018-05-19T08:44:15.402Z,25.82
2018-05-19T08:45:15.325Z,25.09
2018-05-19T08:47:07.103Z,25.54
2018-05-19T08:48:07.048Z,25.74
2018-05-19T08:49:58.841Z,25.26
2018-05-19T08:50:58.785Z,24.63
2018-05-19T08:52:50.549Z,25.41
2018-05-19T08:53:50.493Z,25.48
2018-05-19T08:55:42.341Z,25.82
2018-05-19T08:56:42.272Z,25.93
2018-05-19T08:58:34.051Z,24.99
2018-05-19T08:59:33.997Z,24.24
2018-05-19T09:01:25.791Z,25.46
2018-05-19T09:02:25.727Z,25.67
2018-05-19T09:04:17.615Z,26.64
2018-05-19T09:05:17.447Z,26.91
2018-05-19T09:07:09.227Z,26.87
2018-05-19T09:08:09.166Z,26.39
2018-05-19T09:10:00.960Z,25.17
2018-05-19T09:11:00.893Z,25.54
2018-05-19T09:12:52.758Z,24.97
2018-05-19T09:13:52.631Z,24.37
2018-05-19T09:15:44.443Z,23.45
2018-05-19T09:16:44.364Z,23.63
2018-05-19T09:18:36.151Z,23.25
2018-05-19T09:19:36.106Z,22.84
2018-05-19T09:21:27.893Z,23.26
2018-05-19T09:22:27.826Z,22.91
2018-05-19T09:24:19.630Z,23.56
2018-05-19T09:25:19.566Z,23.57
2018-05-19T09:27:11.330Z,23.84
2018-05-19T09:28:11.279Z,23.74
2018-05-19T09:30:03.065Z,23.25
2018-05-19T09:31:03.007Z,22.88
2018-05-19T09:32:54.771Z,23.06
2018-05-19T09:33:54.717Z,23.07
2018-05-19T09:35:46.505Z,22.97
2018-05-19T09:36:46.433Z,22.56
2018-05-19T09:38:38.186Z,22.88
2018-05-19T09:39:38.133Z,23.04
2018-05-19T09:41:29.951Z,23.45
2018-05-19T09:42:29.883Z,23.75
2018-05-19T09:44:21.690Z,24.12
2018-05-19T09:45:21.648Z,24.30
2018-05-19T09:47:13.437Z,24.55
2018-05-19T09:48:13.345Z,24.51
2018-05-19T09:50:05.138Z,23.47
2018-05-19T09:51:05.060Z,23.53
2018-05-19T09:52:56.854Z,23.45
2018-05-19T09:53:56.785Z,23.37
2018-05-19T09:55:48.567Z,23.07
2018-05-19T09:56:48.518Z,23.38
2018-05-19T09:58:40.311Z,23.34
2018-05-19T09:59:40.257Z,23.06
2018-05-19T10:01:32.061Z,23.32
2018-05-19T10:02:31.990Z,22.94
2018-05-19T10:04:23.765Z,22.88
2018-05-19T10:05:23.704Z,22.66
2018-05-19T10:07:15.493Z,23.41
2018-05-19T10:08:15.428Z,23.64
2018-05-19T10:10:07.243Z,24.12
2018-05-19T10:11:07.164Z,24.05
2018-05-19T10:12:59.467Z,23.34
2018-05-19T10:13:59.393Z,23.44
2018-05-19T10:15:51.183Z,23.87
2018-05-19T10:16:51.113Z,23.68
2018-05-19T10:18:42.895Z,23.69
2018-05-19T10:19:42.867Z,23.64
2018-05-19T10:21:34.627Z,23.68
2018-05-19T10:22:34.561Z,24.06
2018-05-19T10:24:26.332Z,24.49
2018-05-19T10:25:26.279Z,24.67
2018-05-19T10:27:18.132Z,24.39
2018-05-19T10:28:18.335Z,24.46
2018-05-19T10:30:09.959Z,24.70
2018-05-19T10:31:09.919Z,24.67
2018-05-19T10:33:01.670Z,23.84
2018-05-19T10:34:01.612Z,23.69
2018-05-19T10:35:53.406Z,23.12
2018-05-19T10:36:53.342Z,22.69
2018-05-19T10:38:45.107Z,23.03
2018-05-19T10:39:45.056Z,23.60
2018-05-19T10:41:36.839Z,23.75
2018-05-19T10:42:36.788Z,23.89
2018-05-19T10:44:28.546Z,24.21
2018-05-19T10:45:28.489Z,24.14
2018-05-19T10:47:20.285Z,24.02
2018-05-19T10:48:20.215Z,24.29
2018-05-19T10:50:11.999Z,24.19
2018-05-19T10:51:11.934Z,24.34
2018-05-19T10:53:03.734Z,24.52
2018-05-19T10:54:03.666Z,24.71
2018-05-19T10:55:55.469Z,24.82
2018-05-19T10:56:55.388Z,24.74
2018-05-19T10:58:47.183Z,24.00
2018-05-19T10:59:47.114Z,23.93
2018-05-19T11:01:38.891Z,23.82
2018-05-19T11:02:38.828Z,23.87
2018-05-19T11:04:30.599Z,24.16
2018-05-19T11:05:30.543Z,23.96
2018-05-19T11:07:22.330Z,23.35
2018-05-19T11:08:22.259Z,23.18
2018-05-19T11:10:14.042Z,23.16
2018-05-19T11:11:13.983Z,22.78
2018-05-19T11:13:05.776Z,22.48
2018-05-19T11:14:05.709Z,22.48
2018-05-19T11:15:57.496Z,22.75
2018-05-19T11:16:57.435Z,22.79
2018-05-19T11:18:49.295Z,22.78
2018-05-19T11:19:49.151Z,22.74
2018-05-19T11:21:40.948Z,23.06
2018-05-19T11:22:40.893Z,23.37
2018-05-19T11:24:32.729Z,23.47
2018-05-19T11:25:32.644Z,23.62
2018-05-19T11:27:24.411Z,23.50
2018-05-19T11:28:24.336Z,23.64
2018-05-19T11:30:16.104Z,22.96
2018-05-19T11:31:16.047Z,22.67
2018-05-19T11:33:07.843Z,22.81
2018-05-19T11:34:07.772Z,22.72
2018-05-19T11:35:59.550Z,22.67
2018-05-19T11:36:59.484Z,22.49
2018-05-19T11:38:51.288Z,22.66
2018-05-19T11:39:51.222Z,22.72
2018-05-19T11:41:43.019Z,22.75
2018-05-19T11:42:42.971Z,22.67
2018-05-19T11:44:34.751Z,22.56
2018-05-19T11:45:34.687Z,22.57
2018-05-19T11:47:26.493Z,22.60
2018-05-19T11:48:26.392Z,22.66
2018-05-19T11:50:18.164Z,22.78
2018-05-19T11:51:18.152Z,22.89
2018-05-19T11:53:09.908Z,22.91
2018-05-19T11:54:09.807Z,23.06
2018-05-19T11:56:01.612Z,23.11
2018-05-19T11:57:01.563Z,23.03
2018-05-19T11:58:53.333Z,22.70
2018-05-19T11:59:53.254Z,22.39
2018-05-19T12:01:45.040Z,22.29
2018-05-19T12:02:44.985Z,21.99
2018-05-19T12:04:36.768Z,22.24
2018-05-19T12:05:36.693Z,22.21
2018-05-19T12:07:28.543Z,21.83
2018-05-19T12:08:28.465Z,21.83
2018-05-19T12:10:20.247Z,21.83
2018-05-19T12:11:20.185Z,21.81
2018-05-19T12:13:11.980Z,22.14
2018-05-19T12:14:11.886Z,22.27
2018-05-19T12:16:03.665Z,22.48
2018-05-19T12:17:03.604Z,22.45
2018-05-19T12:18:55.388Z,22.24
2018-05-19T12:19:55.314Z,22.29
2018-05-19T12:21:47.077Z,22.29
2018-05-19T12:22:47.083Z,22.30
2018-05-19T12:24:38.813Z,22.26
2018-05-19T12:25:38.733Z,22.29
2018-05-19T12:27:30.502Z,22.14
2018-05-19T12:28:30.441Z,22.17
2018-05-19T12:30:22.232Z,22.06
2018-05-19T12:31:22.160Z,21.98
2018-05-19T12:33:13.954Z,21.89
2018-05-19T12:34:13.895Z,21.94
2018-05-19T12:36:05.657Z,22.29
2018-05-19T12:37:05.586Z,22.26
2018-05-19T12:38:57.381Z,22.44
2018-05-19T12:39:57.310Z,22.36
2018-05-19T12:41:49.067Z,22.19
2018-05-19T12:42:49.004Z,22.06
2018-05-19T12:44:40.776Z,21.89
2018-05-19T12:45:40.748Z,22.06
2018-05-19T12:47:33.060Z,22.20
2018-05-19T12:48:32.967Z,22.01
2018-05-19T12:50:24.756Z,22.06
2018-05-19T12:51:24.673Z,22.15
2018-05-19T12:53:16.452Z,22.27
2018-05-19T12:54:16.387Z,22.31
2018-05-19T12:56:08.190Z,22.46
2018-05-19T12:57:08.131Z,22.15
2018-05-19T12:58:59.926Z,22.17
2018-05-19T12:59:59.853Z,22.14
2018-05-19T13:01:51.660Z,21.90
2018-05-19T13:02:51.552Z,21.93
2018-05-19T13:04:43.374Z,22.11
2018-05-19T13:05:43.260Z,21.99
2018-05-19T13:07:35.065Z,21.94
2018-05-19T13:08:34.984Z,21.82
2018-05-19T13:10:26.764Z,21.85
2018-05-19T13:11:26.704Z,21.99
2018-05-19T13:13:18.483Z,22.26
2018-05-19T13:14:18.450Z,22.36
2018-05-19T13:16:10.220Z,22.12
2018-05-19T13:17:10.144Z,22.06
2018-05-19T13:19:01.958Z,21.98
2018-05-19T13:20:01.851Z,21.98
2018-05-19T13:21:53.674Z,21.90
2018-05-19T13:22:53.567Z,21.89
2018-05-19T13:24:45.593Z,22.01
2018-05-19T13:25:45.403Z,21.90
2018-05-19T13:27:37.200Z,21.89
2018-05-19T13:28:37.145Z,21.90
2018-05-19T13:30:28.835Z,21.94
2018-05-19T13:31:28.770Z,21.94
2018-05-19T13:33:20.517Z,21.89
2018-05-19T13:34:20.459Z,21.82
2018-05-19T13:36:12.250Z,21.91
2018-05-19T13:37:12.183Z,21.90
2018-05-19T13:39:04.052Z,22.01
2018-05-19T13:40:03.975Z,22.08
2018-05-19T13:41:55.972Z,22.17
2018-05-19T13:42:55.703Z,22.21
2018-05-19T13:44:47.481Z,22.24
2018-05-19T13:45:47.415Z,22.21
2018-05-19T13:47:39.207Z,22.15
2018-05-19T13:48:39.143Z,22.19
2018-05-19T13:50:30.923Z,22.04
2018-05-19T13:51:30.858Z,21.98
2018-05-19T13:53:22.623Z,22.06
2018-05-19T13:54:22.563Z,22.11
2018-05-19T13:56:14.339Z,22.24
2018-05-19T13:57:14.261Z,22.30
2018-05-19T13:59:06.620Z,22.36
2018-05-19T14:00:06.550Z,22.31
2018-05-19T14:01:58.431Z,22.24
2018-05-19T14:02:58.278Z,22.08
2018-05-19T14:04:50.010Z,22.15
2018-05-19T14:05:49.924Z,21.94
2018-05-19T14:07:41.690Z,21.91
2018-05-19T14:08:41.634Z,21.82
2018-05-19T14:10:33.412Z,21.66
2018-05-19T14:11:33.335Z,21.68
2018-05-19T14:13:25.107Z,21.77
2018-05-19T14:14:25.045Z,21.89
2018-05-19T14:16:16.868Z,21.98
2018-05-19T14:17:16.767Z,22.11
2018-05-19T14:19:08.533Z,22.21
2018-05-19T14:20:08.475Z,22.14
2018-05-19T14:22:00.254Z,22.29
2018-05-19T14:23:00.176Z,22.33
2018-05-19T14:24:51.946Z,22.52
2018-05-19T14:25:51.890Z,22.49
2018-05-19T14:27:43.736Z,22.54
2018-05-19T14:28:43.594Z,22.51
2018-05-19T14:30:35.361Z,22.61
2018-05-19T14:31:35.309Z,22.56
2018-05-19T14:33:27.074Z,22.48
2018-05-19T14:34:27.009Z,22.48
2018-05-19T14:36:18.810Z,22.57
2018-05-19T14:37:18.719Z,22.42
2018-05-19T14:39:10.510Z,22.44
2018-05-19T14:40:10.468Z,22.52
2018-05-19T14:42:02.225Z,22.45
2018-05-19T14:43:02.133Z,22.51
2018-05-19T14:44:53.913Z,22.63
2018-05-19T14:45:53.911Z,22.54
2018-05-19T14:47:45.632Z,22.52
2018-05-19T14:48:45.557Z,22.51
2018-05-19T14:50:37.350Z,22.63
2018-05-19T14:51:37.279Z,22.74
2018-05-19T14:53:29.050Z,22.59
2018-05-19T14:54:28.969Z,22.61
2018-05-19T14:56:20.748Z,22.72
2018-05-19T14:57:20.670Z,22.66
2018-05-19T14:59:12.447Z,22.69
2018-05-19T15:00:12.376Z,22.63
2018-05-19T15:02:04.158Z,22.44
2018-05-19T15:03:04.082Z,22.42
2018-05-19T15:04:55.846Z,22.30
2018-05-19T15:05:55.782Z,22.33
2018-05-19T15:07:47.556Z,22.42
2018-05-19T15:08:47.485Z,22.35
2018-05-19T15:10:39.258Z,22.33
2018-05-19T15:11:39.306Z,22.46
2018-05-19T15:13:31.728Z,22.46
2018-05-19T15:14:31.427Z,22.29
2018-05-19T15:16:23.379Z,22.15
2018-05-19T15:17:23.146Z,22.14
2018-05-19T15:19:14.910Z,22.26
2018-05-19T15:20:14.850Z,22.36
2018-05-19T15:22:06.623Z,22.36
2018-05-19T15:23:06.588Z,22.35
2018-05-19T15:24:58.349Z,22.24
2018-05-19T15:25:58.297Z,22.15
2018-05-19T15:27:50.080Z,22.21
2018-05-19T15:28:50.005Z,22.20
2018-05-19T15:30:41.783Z,22.23
2018-05-19T15:31:41.718Z,22.27
2018-05-19T15:33:33.499Z,22.19
2018-05-19T15:34:33.426Z,22.24
2018-05-19T15:36:25.209Z,22.19
2018-05-19T15:37:25.150Z,22.21
2018-05-19T15:39:16.918Z,22.12
2018-05-19T15:40:16.844Z,22.19
2018-05-19T15:42:08.617Z,22.29
2018-05-19T15:43:08.550Z,22.24
2018-05-19T15:45:00.330Z,22.19
2018-05-19T15:46:00.263Z,22.27
2018-05-19T15:47:52.081Z,22.17
2018-05-19T15:48:52.002Z,22.19
2018-05-19T15:50:43.766Z,22.21
2018-05-19T15:51:43.707Z,22.19
2018-05-19T15:53:35.513Z,22.08
2018-05-19T15:54:35.441Z,22.08
2018-05-19T15:56:27.224Z,22.15
2018-05-19T15:57:27.162Z,22.20
2018-05-19T15:59:18.974Z,22.17
2018-05-19T16:00:18.903Z,22.17
2018-05-19T16:02:10.717Z,22.05
2018-05-19T16:03:10.614Z,22.11
2018-05-19T16:05:02.407Z,22.15
2018-05-19T16:06:02.322Z,22.19
2018-05-19T16:07:54.117Z,22.11
2018-05-19T16:08:54.044Z,21.96
2018-05-19T16:10:45.807Z,22.06
2018-05-19T16:11:45.748Z,22.02
2018-05-19T16:13:37.545Z,22.08
2018-05-19T16:14:37.448Z,22.05
2018-05-19T16:16:29.219Z,21.99
2018-05-19T16:17:29.162Z,21.98
2018-05-19T16:19:20.937Z,21.98
2018-05-19T16:20:20.863Z,22.01
2018-05-19T16:22:12.669Z,22.04
2018-05-19T16:23:12.568Z,22.09
2018-05-19T16:25:04.347Z,21.99
2018-05-19T16:26:04.287Z,21.94
2018-05-19T16:27:56.053Z,21.93
2018-05-19T16:28:55.996Z,21.90
2018-05-19T16:30:47.739Z,21.83
2018-05-19T16:31:47.684Z,21.93
2018-05-19T16:33:39.483Z,21.81
2018-05-19T16:34:39.405Z,21.89
2018-05-19T16:36:31.201Z,21.79
2018-05-19T16:37:31.141Z,21.79
2018-05-19T16:39:22.937Z,21.66
2018-05-19T16:40:22.837Z,21.68
2018-05-19T16:42:14.630Z,21.70
2018-05-19T16:43:14.549Z,21.67
2018-05-19T16:45:06.346Z,21.75
2018-05-19T16:46:06.244Z,21.73
2018-05-19T16:47:58.014Z,21.58
2018-05-19T16:48:57.948Z,21.63
2018-05-19T16:50:49.723Z,21.56
2018-05-19T16:51:49.659Z,21.61
2018-05-19T16:53:41.454Z,21.55
2018-05-19T16:54:41.370Z,21.53
2018-05-19T16:56:33.131Z,21.45
2018-05-19T16:57:33.072Z,21.46
2018-05-19T16:59:24.877Z,21.38
2018-05-19T17:00:24.800Z,21.38
2018-05-19T17:02:16.640Z,21.45
2018-05-19T17:03:16.655Z,21.38
2018-05-19T17:05:08.402Z,21.40
2018-05-19T17:06:08.284Z,21.45
2018-05-19T17:08:00.102Z,21.46
2018-05-19T17:08:59.996Z,21.40
2018-05-19T17:10:51.758Z,21.36
2018-05-19T17:11:51.700Z,21.40
2018-05-19T17:13:43.477Z,21.43
2018-05-19T17:14:43.417Z,21.51
2018-05-19T17:16:35.184Z,21.48
2018-05-19T17:17:35.142Z,21.45
2018-05-19T17:19:26.922Z,21.45
2018-05-19T17:20:26.838Z,21.34
2018-05-19T17:22:18.601Z,21.31
2018-05-19T17:23:18.541Z,21.19
2018-05-19T17:25:10.350Z,21.37
2018-05-19T17:26:10.247Z,21.27
2018-05-19T17:28:02.040Z,21.09
2018-05-19T17:29:01.966Z,21.16
2018-05-19T17:30:53.781Z,21.08
2018-05-19T17:31:53.700Z,21.08
2018-05-19T17:33:45.483Z,21.06
2018-05-19T17:34:45.411Z,20.98
2018-05-19T17:36:37.170Z,20.85
2018-05-19T17:37:37.113Z,20.91
2018-05-19T17:39:28.950Z,20.93
2018-05-19T17:40:28.840Z,20.91
2018-05-19T17:42:20.640Z,20.91
2018-05-19T17:43:20.575Z,20.85
2018-05-19T17:45:12.356Z,20.85
2018-05-19T17:46:12.264Z,20.82
2018-05-19T17:48:04.041Z,20.82
2018-05-19T17:49:03.977Z,20.82
2018-05-19T17:50:55.738Z,20.78
2018-05-19T17:51:55.667Z,20.79
2018-05-19T17:53:47.445Z,20.78
2018-05-19T17:54:47.383Z,20.69
2018-05-19T17:56:39.156Z,20.83
2018-05-19T17:57:39.085Z,20.91
2018-05-19T17:59:30.863Z,20.90
2018-05-19T18:00:30.795Z,20.85
2018-05-19T18:02:22.566Z,20.75
2018-05-19T18:03:22.499Z,20.75
2018-05-19T18:05:14.350Z,20.75
2018-05-19T18:06:14.221Z,20.68
2018-05-19T18:08:05.974Z,20.60
2018-05-19T18:09:05.945Z,20.46
2018-05-19T18:10:57.708Z,20.40
2018-05-19T18:11:57.651Z,20.38
2018-05-19T18:13:49.419Z,20.34
2018-05-19T18:14:49.383Z,20.34
2018-05-19T18:16:41.159Z,20.23
2018-05-19T18:17:41.072Z,20.22
2018-05-19T18:19:32.869Z,20.12
2018-05-19T18:20:32.798Z,20.13
2018-05-19T18:22:24.631Z,20.05
2018-05-19T18:23:24.545Z,20.08
2018-05-19T18:25:16.321Z,19.98